createdAt,value
2018-02-12T00:00:45.259Z,98836.47
2018-02-12T00:03:13.670Z,98833.06
2018-02-12T00:05:42.082Z,98837.17
2018-02-12T00:08:10.530Z,98842.78
2018-02-12T00:10:38.917Z,98840.80
2018-02-12T00:13:07.314Z,98846.93
2018-02-12T00:15:35.755Z,98843.44
2018-02-12T00:18:04.169Z,98841.54
2018-02-12T00:20:32.555Z,98845.06
2018-02-12T00:23:01.016Z,98845.64
2018-02-12T00:25:29.447Z,98848.74
2018-02-12T00:27:57.833Z,98842.86
2018-02-12T00:30:26.258Z,98849.73
2018-02-12T00:32:54.654Z,98842.37
2018-02-12T00:35:23.050Z,98843.14
2018-02-12T00:37:51.541Z,98847.92
2018-02-12T00:40:19.958Z,98853.98
2018-02-12T00:42:48.358Z,98843.95
2018-02-12T00:45:16.802Z,98844.95
2018-02-12T00:47:45.195Z,98845.44
2018-02-12T00:50:13.628Z,98848.08
2018-02-12T00:52:42.065Z,98850.77
2018-02-12T00:55:10.514Z,98853.64
2018-02-12T00:57:38.911Z,98862.40
2018-02-12T01:00:07.418Z,98869.55
2018-02-12T01:02:35.846Z,98870.25
2018-02-12T01:05:04.290Z,98870.39
2018-02-12T01:07:32.717Z,98875.06
2018-02-12T01:10:01.098Z,98882.11
2018-02-12T01:12:29.487Z,98872.76
2018-02-12T01:14:57.951Z,98875.84
2018-02-12T01:17:26.344Z,98881.31
2018-02-12T01:19:54.758Z,98879.63
2018-02-12T01:22:23.373Z,98886.28
2018-02-12T01:24:52.584Z,98878.45
2018-02-12T01:27:21.005Z,98884.66
2018-02-12T01:29:49.479Z,98882.11
2018-02-12T01:32:17.877Z,98881.59
2018-02-12T01:34:46.298Z,98890.84
2018-02-12T01:37:14.750Z,98886.17
2018-02-12T01:39:43.171Z,98890.45
2018-02-12T01:42:11.622Z,98898.78
2018-02-12T01:44:40.095Z,98886.36
2018-02-12T01:47:08.494Z,98894.52
2018-02-12T01:49:36.888Z,98900.59
2018-02-12T01:52:05.372Z,98904.58
2018-02-12T01:54:33.803Z,98900.04
2018-02-12T01:57:02.238Z,98907.28
2018-02-12T01:59:30.727Z,98907.64
2018-02-12T02:01:59.136Z,98908.01
2018-02-12T02:04:27.551Z,98912.61
2018-02-12T02:06:55.987Z,98901.66
2018-02-12T02:09:24.403Z,98903.48
2018-02-12T02:11:52.812Z,98894.61
2018-02-12T02:14:21.258Z,98895.70
2018-02-12T02:16:49.667Z,98904.44
2018-02-12T02:19:18.108Z,98901.42
2018-02-12T02:21:46.554Z,98895.98
2018-02-12T02:24:14.951Z,98894.94
2018-02-12T02:26:43.342Z,98906.78
2018-02-12T02:29:11.766Z,98917.23
2018-02-12T02:31:40.179Z,98920.56
2018-02-12T02:34:08.588Z,98918.87
2018-02-12T02:36:37.044Z,98927.01
2018-02-12T02:39:05.463Z,98919.38
2018-02-12T02:41:33.868Z,98918.38
2018-02-12T02:44:02.339Z,98921.24
2018-02-12T02:46:30.746Z,98923.70
2018-02-12T02:48:59.159Z,98934.42
2018-02-12T02:51:27.622Z,98931.52
2018-02-12T02:53:56.234Z,98938.92
2018-02-12T02:56:24.653Z,98944.01
2018-02-12T02:58:53.142Z,98944.78
2018-02-12T03:01:21.572Z,98941.14
2018-02-12T03:03:49.977Z,98943.45
2018-02-12T03:06:18.441Z,98941.59
2018-02-12T03:08:46.851Z,98943.82
2018-02-12T03:11:15.259Z,98947.54
2018-02-12T03:13:43.692Z,98946.41
2018-02-12T03:16:12.110Z,98950.73
2018-02-12T03:18:40.515Z,98950.55
2018-02-12T03:21:08.993Z,98952.38
2018-02-12T03:23:37.423Z,98950.19
2018-02-12T03:26:05.829Z,98954.34
2018-02-12T03:28:34.277Z,98944.69
2018-02-12T03:31:03.078Z,98949.30
2018-02-12T03:33:31.491Z,98957.24
2018-02-12T03:35:59.925Z,98951.69
2018-02-12T03:38:28.357Z,98967.28
2018-02-12T03:40:56.769Z,98966.66
2018-02-12T03:43:25.259Z,98967.98
2018-02-12T03:45:53.723Z,98973.06
2018-02-12T03:48:22.135Z,98974.80
2018-02-12T03:50:50.599Z,98970.05
2018-02-12T03:53:19.009Z,98984.88
2018-02-12T03:55:47.406Z,98981.06
2018-02-12T03:58:15.858Z,98983.28
2018-02-12T04:00:44.323Z,98985.61
2018-02-12T04:03:12.727Z,98993.42
2018-02-12T04:05:41.169Z,98994.97
2018-02-12T04:08:09.570Z,98992.65
2018-02-12T04:10:37.965Z,98992.10
2018-02-12T04:13:06.405Z,99000.45
2018-02-12T04:15:34.802Z,98998.68
2018-02-12T04:18:03.218Z,98999.41
2018-02-12T04:20:31.674Z,99000.13
2018-02-12T04:23:00.131Z,99008.00
2018-02-12T04:25:28.564Z,99010.77
2018-02-12T04:27:57.043Z,99003.45
2018-02-12T04:30:25.460Z,99007.18
2018-02-12T04:32:53.887Z,99008.81
2018-02-12T04:35:22.329Z,99009.04
2018-02-12T04:37:50.726Z,99017.05
2018-02-12T04:40:19.138Z,99019.59
2018-02-12T04:42:47.596Z,99023.64
2018-02-12T04:45:15.981Z,99024.86
2018-02-12T04:47:44.379Z,99029.22
2018-02-12T04:50:12.814Z,99035.63
2018-02-12T04:52:41.209Z,99038.22
2018-02-12T04:55:09.665Z,99042.38
2018-02-12T04:57:38.122Z,99043.44
2018-02-12T05:00:06.565Z,99047.98
2018-02-12T05:02:34.965Z,99047.59
2018-02-12T05:05:03.658Z,99046.11
2018-02-12T05:07:32.060Z,99040.86
2018-02-12T05:10:00.475Z,99043.78
2018-02-12T05:12:28.948Z,99045.58
2018-02-12T05:14:57.352Z,99048.81
2018-02-12T05:17:25.762Z,99046.77
2018-02-12T05:19:54.210Z,99046.83
2018-02-12T05:22:22.631Z,99049.00
2018-02-12T05:24:51.051Z,99051.35
2018-02-12T05:27:19.518Z,99054.55
2018-02-12T05:29:47.930Z,99056.44
2018-02-12T05:32:16.325Z,99051.83
2018-02-12T05:34:44.777Z,99052.24
2018-02-12T05:37:13.219Z,99058.98
2018-02-12T05:39:41.662Z,99061.31
2018-02-12T05:42:10.117Z,99063.64
2018-02-12T05:44:38.557Z,99071.59
2018-02-12T05:47:06.995Z,99072.04
2018-02-12T05:49:35.463Z,99070.25
2018-02-12T05:52:03.889Z,99081.92
2018-02-12T05:54:32.289Z,99087.61
2018-02-12T05:57:00.781Z,99092.16
2018-02-12T05:59:29.209Z,99100.86
2018-02-12T06:01:57.634Z,99105.41
2018-02-12T06:04:26.098Z,99101.36
2018-02-12T06:06:54.512Z,99105.83
2018-02-12T06:09:22.935Z,99107.71
2018-02-12T06:11:51.417Z,99111.14
2018-02-12T06:14:19.831Z,99113.32
2018-02-12T06:16:48.264Z,99115.62
2018-02-12T06:19:16.715Z,99120.72
2018-02-12T06:21:45.119Z,99126.75
2018-02-12T06:24:13.543Z,99133.88
2018-02-12T06:26:42.034Z,99135.49
2018-02-12T06:29:10.456Z,99137.04
2018-02-12T06:31:38.905Z,99142.48
2018-02-12T06:34:07.354Z,99138.84
2018-02-12T06:36:35.824Z,99136.98
2018-02-12T06:39:04.275Z,99149.80
2018-02-12T06:41:32.706Z,99153.03
2018-02-12T06:44:01.106Z,99152.80
2018-02-12T06:46:29.500Z,99160.77
2018-02-12T06:48:57.942Z,99167.05
2018-02-12T06:51:26.362Z,99170.83
2018-02-12T06:53:54.753Z,99170.61
2018-02-12T06:56:23.193Z,99182.82
2018-02-12T06:58:51.603Z,99190.80
2018-02-12T07:01:20.037Z,99196.48
2018-02-12T07:03:48.474Z,99189.95
2018-02-12T07:06:16.872Z,99198.00
2018-02-12T07:08:45.263Z,99201.47
2018-02-12T07:11:13.691Z,99203.01
2018-02-12T07:13:42.094Z,99211.16
2018-02-12T07:16:10.511Z,99210.92
2018-02-12T07:18:38.941Z,99216.20
2018-02-12T07:21:07.333Z,99218.59
2018-02-12T07:23:35.762Z,99228.34
2018-02-12T07:26:04.248Z,99233.16
2018-02-12T07:28:32.684Z,99229.98
2018-02-12T07:31:01.100Z,99235.30
2018-02-12T07:33:29.546Z,99235.77
2018-02-12T07:35:57.947Z,99246.47
2018-02-12T07:38:26.334Z,99244.28
2018-02-12T07:40:54.766Z,99243.45
2018-02-12T07:43:23.180Z,99247.69
2018-02-12T07:45:51.563Z,99246.01
2018-02-12T07:48:20.029Z,99265.60
2018-02-12T07:50:48.422Z,99258.36
2018-02-12T07:53:16.846Z,99268.28
2018-02-12T07:55:45.304Z,99264.58
2018-02-12T07:58:13.704Z,99271.16
2018-02-12T08:00:42.134Z,99267.70
2018-02-12T08:03:10.570Z,99276.09
2018-02-12T08:05:38.968Z,99275.19
2018-02-12T08:08:07.354Z,99269.87
2018-02-12T08:10:35.791Z,99278.06
2018-02-12T08:13:04.215Z,99287.58
2018-02-12T08:15:32.619Z,99283.26
2018-02-12T08:18:01.051Z,99286.97
2018-02-12T08:20:29.442Z,99292.23
2018-02-12T08:22:57.858Z,99293.92
2018-02-12T08:25:26.284Z,99299.64
2018-02-12T08:27:54.688Z,99303.83
2018-02-12T08:30:26.899Z,99302.15
2018-02-12T08:32:55.300Z,99299.75
2018-02-12T08:35:23.718Z,99308.53
2018-02-12T08:37:52.171Z,99308.58
2018-02-12T08:40:20.582Z,99316.14
2018-02-12T08:42:48.998Z,99319.36
2018-02-12T08:45:17.448Z,99315.75
2018-02-12T08:47:45.855Z,99318.63
2018-02-12T08:50:14.259Z,99311.61
2018-02-12T08:52:42.819Z,99328.83
2018-02-12T08:55:11.219Z,99327.33
2018-02-12T08:57:39.647Z,99333.98
2018-02-12T09:00:08.085Z,99337.64
2018-02-12T09:02:36.479Z,99340.95
2018-02-12T09:05:04.874Z,99336.45
2018-02-12T09:07:33.456Z,99336.98
2018-02-12T09:10:01.852Z,99341.30
2018-02-12T09:12:30.250Z,99353.35
2018-02-12T09:14:58.677Z,99352.27
2018-02-12T09:17:27.092Z,99359.52
2018-02-12T09:19:55.488Z,99355.86
2018-02-12T09:22:23.928Z,99363.72
2018-02-12T09:24:52.345Z,99366.48
2018-02-12T09:27:20.746Z,99371.94
2018-02-12T09:29:49.174Z,99373.17
2018-02-12T09:32:17.557Z,99382.98
2018-02-12T09:34:45.944Z,99386.16
2018-02-12T09:37:14.389Z,99385.66
2018-02-12T09:39:42.794Z,99400.23
2018-02-12T09:42:11.214Z,99397.59
2018-02-12T09:44:39.695Z,99404.14
2018-02-12T09:47:08.331Z,99405.22
2018-02-12T09:49:36.735Z,99405.80
2018-02-12T09:52:05.185Z,99407.54
2018-02-12T09:54:33.583Z,99415.88
2018-02-12T09:57:01.995Z,99418.70
2018-02-12T09:59:31.371Z,99424.46
2018-02-12T10:01:59.778Z,99431.40
2018-02-12T10:04:28.157Z,99434.52
2018-02-12T10:06:56.603Z,99442.02
2018-02-12T10:09:25.000Z,99432.23
2018-02-12T10:11:53.426Z,99433.91
2018-02-12T10:14:21.881Z,99441.22
2018-02-12T10:16:50.263Z,99453.45
2018-02-12T10:19:18.646Z,99457.18
2018-02-12T10:21:47.077Z,99458.67
2018-02-12T10:24:15.466Z,99459.95
2018-02-12T10:26:43.885Z,99462.05
2018-02-12T10:29:12.316Z,99468.66
2018-02-12T10:31:40.733Z,99466.74
2018-02-12T10:34:09.131Z,99472.61
2018-02-12T10:36:37.590Z,99476.30
2018-02-12T10:39:06.001Z,99471.72
2018-02-12T10:41:34.405Z,99488.11
2018-02-12T10:44:02.835Z,99491.95
2018-02-12T10:46:31.252Z,99492.32
2018-02-12T10:48:59.648Z,99502.50
2018-02-12T10:51:28.085Z,99500.30
2018-02-12T10:53:56.489Z,99507.44
2018-02-12T10:56:24.902Z,99507.23
2018-02-12T10:58:53.529Z,99517.57
2018-02-12T11:01:21.919Z,99520.03
2018-02-12T11:03:50.299Z,99520.98
2018-02-12T11:06:18.757Z,99531.98
2018-02-12T11:08:47.188Z,99522.72
2018-02-12T11:11:15.599Z,99525.56
2018-02-12T11:13:44.048Z,99526.78
2018-02-12T11:16:12.429Z,99537.30
2018-02-12T11:18:40.813Z,99538.20
2018-02-12T11:21:09.241Z,99540.96
2018-02-12T11:23:37.637Z,99540.59
2018-02-12T11:26:06.051Z,99543.35
2018-02-12T11:28:34.502Z,99537.91
2018-02-12T11:31:02.893Z,99540.98
2018-02-12T11:33:31.290Z,99543.45
2018-02-12T11:35:59.740Z,99539.85
2018-02-12T11:38:28.118Z,99546.73
2018-02-12T11:40:56.526Z,99552.58
2018-02-12T11:43:24.961Z,99545.48
2018-02-12T11:45:53.359Z,99548.36
2018-02-12T11:48:21.787Z,99546.12
2018-02-12T11:50:50.383Z,99549.00
2018-02-12T11:53:18.810Z,99546.95
2018-02-12T11:55:47.211Z,99549.56
2018-02-12T11:58:15.638Z,99543.38
2018-02-12T12:00:44.059Z,99546.79
2018-02-12T12:03:12.508Z,99545.98
2018-02-12T12:05:40.945Z,99545.00
2018-02-12T12:08:09.323Z,99556.36
2018-02-12T12:10:37.709Z,99547.55
2018-02-12T12:13:06.128Z,99550.68
2018-02-12T12:15:34.501Z,99558.64
2018-02-12T12:18:02.899Z,99560.72
2018-02-12T12:20:31.351Z,99561.78
2018-02-12T12:22:59.749Z,99561.19
2018-02-12T12:25:28.129Z,99561.16
2018-02-12T12:27:56.564Z,99561.40
2018-02-12T12:30:24.971Z,99561.47
2018-02-12T12:32:53.345Z,99560.07
2018-02-12T12:35:21.795Z,99559.81
2018-02-12T12:37:50.213Z,99562.86
2018-02-12T12:40:18.599Z,99564.45
2018-02-12T12:42:47.022Z,99557.89
2018-02-12T12:45:15.409Z,99565.95
2018-02-12T12:47:43.805Z,99567.56
2018-02-12T12:50:12.239Z,99552.61
2018-02-12T12:52:40.636Z,99566.08
2018-02-12T12:55:09.032Z,99564.68
2018-02-12T12:57:37.465Z,99566.84
2018-02-12T13:00:05.880Z,99569.55
2018-02-12T13:02:34.256Z,99562.19
2018-02-12T13:05:02.706Z,99565.53
2018-02-12T13:07:31.131Z,99574.37
2018-02-12T13:09:59.524Z,99569.97
2018-02-12T13:12:27.947Z,99574.63
2018-02-12T13:14:56.367Z,99583.29
2018-02-12T13:17:24.759Z,99582.61
2018-02-12T13:19:53.236Z,99580.90
2018-02-12T13:22:21.647Z,99583.88
2018-02-12T13:24:50.655Z,99588.45
2018-02-12T13:27:19.091Z,99592.06
2018-02-12T13:29:47.469Z,99589.72
2018-02-12T13:32:15.867Z,99590.98
2018-02-12T13:34:44.317Z,99587.97
2018-02-12T13:37:12.696Z,99586.14
2018-02-12T13:39:41.095Z,99586.48
2018-02-12T13:42:09.533Z,99573.66
2018-02-12T13:44:37.980Z,99581.80
2018-02-12T13:47:06.367Z,99580.75
2018-02-12T13:49:34.794Z,99582.66
2018-02-12T13:52:03.220Z,99582.78
2018-02-12T13:54:31.642Z,99583.77
2018-02-12T13:57:00.106Z,99586.27
2018-02-12T13:59:28.535Z,99590.83
2018-02-12T14:01:56.963Z,99592.89
2018-02-12T14:04:25.401Z,99599.95
2018-02-12T14:06:53.790Z,99600.41
2018-02-12T14:09:22.189Z,99601.11
2018-02-12T14:11:50.621Z,99597.83
2018-02-12T14:14:19.016Z,99589.73
2018-02-12T14:16:47.408Z,99595.75
2018-02-12T14:19:15.856Z,99593.92
2018-02-12T14:21:44.238Z,99592.38
2018-02-12T14:24:12.623Z,99587.25
2018-02-12T14:26:41.050Z,99593.22
2018-02-12T14:29:09.498Z,99596.91
2018-02-12T14:31:37.900Z,99593.50
2018-02-12T14:34:06.350Z,99597.09
2018-02-12T14:36:34.767Z,99602.34
2018-02-12T14:39:03.189Z,99600.38
2018-02-12T14:41:31.623Z,99610.33
2018-02-12T14:44:00.017Z,99613.72
2018-02-12T14:46:28.413Z,99606.95
2018-02-12T14:48:56.850Z,99610.55
2018-02-12T14:51:25.263Z,99613.19
2018-02-12T14:53:53.683Z,99618.05
2018-02-12T14:56:22.146Z,99621.03
2018-02-12T14:58:50.606Z,99620.52
2018-02-12T15:01:19.003Z,99619.09
2018-02-12T15:03:47.447Z,99629.89
2018-02-12T15:06:15.853Z,99626.66
2018-02-12T15:08:44.244Z,99633.22
2018-02-12T15:11:12.708Z,99634.90
2018-02-12T15:13:41.150Z,99635.49
2018-02-12T15:16:09.549Z,99647.98
2018-02-12T15:18:38.021Z,99648.09
2018-02-12T15:21:06.431Z,99649.98
2018-02-12T15:23:34.840Z,99653.67
2018-02-12T15:26:03.270Z,99652.78
2018-02-12T15:28:31.686Z,99656.95
2018-02-12T15:31:00.085Z,99667.56
2018-02-12T15:33:28.525Z,99658.93
2018-02-12T15:35:56.944Z,99663.05
2018-02-12T15:38:25.343Z,99673.58
2018-02-12T15:40:53.802Z,99659.98
2018-02-12T15:43:22.198Z,99665.98
2018-02-12T15:45:50.620Z,99669.58
2018-02-12T15:48:19.057Z,99670.36
2018-02-12T15:50:47.455Z,99671.31
2018-02-12T15:53:15.834Z,99675.03
2018-02-12T15:55:44.294Z,99682.13
2018-02-12T15:58:12.687Z,99683.91
2018-02-12T16:00:41.071Z,99685.52
2018-02-12T16:03:09.507Z,99693.39
2018-02-12T16:05:37.918Z,99694.80
2018-02-12T16:08:06.317Z,99694.55
2018-02-12T16:10:34.834Z,99691.66
2018-02-12T16:13:03.216Z,99699.22
2018-02-12T16:15:31.617Z,99695.87
2018-02-12T16:18:00.049Z,99706.44
2018-02-12T16:20:28.448Z,99706.15
2018-02-12T16:22:56.850Z,99712.66
2018-02-12T16:25:25.311Z,99717.69
2018-02-12T16:27:53.717Z,99715.75
2018-02-12T16:30:22.131Z,99719.70
2018-02-12T16:32:50.585Z,99725.33
2018-02-12T16:35:18.969Z,99729.13
2018-02-12T16:37:47.357Z,99729.63
2018-02-12T16:40:15.804Z,99739.12
2018-02-12T16:42:44.198Z,99747.30
2018-02-12T16:45:12.590Z,99745.19
2018-02-12T16:47:41.218Z,99748.48
2018-02-12T16:50:09.695Z,99763.13
2018-02-12T16:52:38.066Z,99745.50
2018-02-12T16:55:06.490Z,99749.95
2018-02-12T16:57:34.894Z,99738.19
2018-02-12T17:00:03.326Z,99738.52
2018-02-12T17:02:31.831Z,99739.91
2018-02-12T17:05:00.214Z,99744.67
2018-02-12T17:07:28.627Z,99763.09
2018-02-12T17:09:57.079Z,99817.74
2018-02-12T17:12:25.466Z,99815.12
2018-02-12T17:14:53.854Z,99820.78
2018-02-12T17:17:22.308Z,99813.84
2018-02-12T17:19:50.727Z,99822.69
2018-02-12T17:22:19.154Z,99826.73
2018-02-12T17:24:47.603Z,99818.39
2018-02-12T17:27:16.014Z,99814.16
2018-02-12T17:29:44.403Z,99816.19
2018-02-12T17:32:12.843Z,99808.47
2018-02-12T17:34:41.231Z,99787.30
2018-02-12T17:37:09.620Z,99789.16
2018-02-12T17:39:38.065Z,99799.56
2018-02-12T17:42:06.453Z,99791.84
2018-02-12T17:44:34.854Z,99799.75
2018-02-12T17:47:03.492Z,99806.50
2018-02-12T17:49:31.946Z,99812.89
2018-02-12T17:52:00.329Z,99812.72
2018-02-12T17:54:28.808Z,99812.63
2018-02-12T17:56:57.191Z,99830.42
2018-02-12T17:59:25.591Z,99825.63
2018-02-12T18:01:54.051Z,99826.41
2018-02-12T18:04:22.494Z,99834.70
2018-02-12T18:06:50.927Z,99837.08
2018-02-12T18:09:19.390Z,99838.47
2018-02-12T18:11:47.783Z,99844.84
2018-02-12T18:14:16.175Z,99843.16
2018-02-12T18:16:44.624Z,99845.34
2018-02-12T18:19:13.147Z,99846.00
2018-02-12T18:21:41.858Z,99847.34
2018-02-12T18:24:10.313Z,99848.17
2018-02-12T18:26:38.750Z,99847.56
2018-02-12T18:29:07.138Z,99856.26
2018-02-12T18:31:35.562Z,99851.14
2018-02-12T18:34:03.994Z,99854.98
2018-02-12T18:36:32.387Z,99849.44
2018-02-12T18:39:01.028Z,99857.88
2018-02-12T18:41:29.396Z,99859.86
2018-02-12T18:43:57.783Z,99862.55
2018-02-12T18:46:26.255Z,99867.19
2018-02-12T18:48:54.671Z,99867.71
2018-02-12T18:51:23.099Z,99867.23
2018-02-12T18:53:51.547Z,99867.69
2018-02-12T18:56:19.936Z,99865.48
2018-02-12T18:58:48.356Z,99877.09
2018-02-12T19:01:16.788Z,99873.60
2018-02-12T19:03:45.177Z,99870.34
2018-02-12T19:06:13.573Z,99867.89
2018-02-12T19:08:41.981Z,99872.73
2018-02-12T19:11:10.389Z,99875.27
2018-02-12T19:13:38.815Z,99872.22
2018-02-12T19:16:07.282Z,99870.00
2018-02-12T19:18:35.696Z,99877.20
2018-02-12T19:21:04.083Z,99878.45
2018-02-12T19:23:32.583Z,99879.70
2018-02-12T19:26:00.993Z,99881.02
2018-02-12T19:28:29.381Z,99882.50
2018-02-12T19:30:57.847Z,99880.94
2018-02-12T19:33:26.279Z,99876.78
2018-02-12T19:35:54.671Z,99884.48
2018-02-12T19:38:23.093Z,99886.38
2018-02-12T19:40:51.491Z,99886.63
2018-02-12T19:43:19.919Z,99893.94
2018-02-12T19:45:48.357Z,99891.09
2018-02-12T19:48:16.781Z,99892.06
2018-02-12T19:50:45.206Z,99895.39
2018-02-12T19:53:13.641Z,99894.66
2018-02-12T19:55:42.056Z,99894.83
2018-02-12T19:58:10.461Z,99892.06
2018-02-12T20:00:39.102Z,99901.10
2018-02-12T20:03:07.508Z,99895.52
2018-02-12T20:05:35.932Z,99901.80
2018-02-12T20:08:04.395Z,99899.71
2018-02-12T20:10:32.858Z,99897.53
2018-02-12T20:13:01.300Z,99906.18
2018-02-12T20:15:29.782Z,99893.55
2018-02-12T20:17:58.190Z,99898.31
2018-02-12T20:20:26.588Z,99901.41
2018-02-12T20:22:55.048Z,99899.25
2018-02-12T20:25:23.456Z,99900.29
2018-02-12T20:27:51.858Z,99904.17
2018-02-12T20:30:20.333Z,99905.41
2018-02-12T20:32:48.739Z,99908.60
2018-02-12T20:35:17.166Z,99914.20
2018-02-12T20:37:45.678Z,99913.02
2018-02-12T20:40:14.129Z,99913.69
2018-02-12T20:42:42.574Z,99913.41
2018-02-12T20:45:11.291Z,99914.89
2018-02-12T20:47:39.731Z,99917.06
2018-02-12T20:50:08.139Z,99913.03
2018-02-12T20:52:36.768Z,99912.03
2018-02-12T20:55:05.183Z,99916.41
2018-02-12T20:57:33.566Z,99918.38
2018-02-12T21:00:02.007Z,99920.89
2018-02-12T21:02:30.420Z,99923.66
2018-02-12T21:04:58.812Z,99923.27
2018-02-12T21:07:27.249Z,99925.39
2018-02-12T21:09:55.670Z,99925.28
2018-02-12T21:12:24.098Z,99932.34
2018-02-12T21:14:52.577Z,99927.02
2018-02-12T21:17:20.966Z,99933.33
2018-02-12T21:19:49.371Z,99935.81
2018-02-12T21:22:17.798Z,99936.14
2018-02-12T21:24:46.194Z,99939.16
2018-02-12T21:27:14.617Z,99934.92
2018-02-12T21:29:43.078Z,99940.10
2018-02-12T21:32:11.508Z,99934.59
2018-02-12T21:34:39.918Z,99938.50
2018-02-12T21:37:08.367Z,99943.13
2018-02-12T21:39:36.765Z,99938.72
2018-02-12T21:42:05.178Z,99943.30
2018-02-12T21:44:33.654Z,99941.92
2018-02-12T21:47:02.085Z,99947.17
2018-02-12T21:49:30.476Z,99940.80
2018-02-12T21:51:58.927Z,99945.11
2018-02-12T21:54:27.349Z,99948.96
2018-02-12T21:56:55.757Z,99944.38
2018-02-12T21:59:24.189Z,99949.03
2018-02-12T22:01:52.620Z,99951.67
2018-02-12T22:04:21.031Z,99952.59
2018-02-12T22:06:49.487Z,99953.95
2018-02-12T22:09:17.878Z,99950.97
2018-02-12T22:11:46.298Z,99949.91
2018-02-12T22:14:14.729Z,99949.55
2018-02-12T22:16:43.134Z,99953.23
2018-02-12T22:19:11.560Z,99949.09
2018-02-12T22:21:40.022Z,99948.30
2018-02-12T22:24:08.409Z,99946.10
2018-02-12T22:26:36.799Z,99953.52
2018-02-12T22:29:05.250Z,99955.77
2018-02-12T22:31:33.648Z,99951.30
2018-02-12T22:34:02.043Z,99957.72
2018-02-12T22:36:30.494Z,99955.96
2018-02-12T22:38:58.914Z,99954.14
2018-02-12T22:41:27.324Z,99960.00
2018-02-12T22:43:55.912Z,99961.13
2018-02-12T22:46:24.376Z,99967.44
2018-02-12T22:48:52.823Z,99960.06
2018-02-12T22:51:21.286Z,99964.49
2018-02-12T22:53:49.698Z,99959.72
2018-02-12T22:56:18.093Z,99966.03
2018-02-12T22:58:46.567Z,99961.22
2018-02-12T23:01:14.968Z,99969.58
2018-02-12T23:03:43.354Z,99971.34
2018-02-12T23:06:11.789Z,99972.19
2018-02-12T23:08:40.183Z,99968.20
2018-02-12T23:11:08.602Z,99976.73
2018-02-12T23:13:37.042Z,99971.52
2018-02-12T23:16:05.469Z,99976.64
2018-02-12T23:18:33.874Z,99979.02
2018-02-12T23:21:02.313Z,99979.37
2018-02-12T23:23:30.703Z,99982.66
2018-02-12T23:25:59.162Z,99977.79
2018-02-12T23:28:27.613Z,99982.02
2018-02-12T23:30:56.028Z,99985.77
2018-02-12T23:33:24.445Z,99981.13
2018-02-12T23:35:52.893Z,99984.73
2018-02-12T23:38:21.324Z,99984.19
2018-02-12T23:40:49.740Z,99977.40
2018-02-12T23:43:18.210Z,99980.15
2018-02-12T23:45:46.609Z,99982.70
2018-02-12T23:48:15.010Z,99983.70
2018-02-12T23:50:43.486Z,99982.57
2018-02-12T23:53:11.891Z,99981.26
2018-02-12T23:55:40.283Z,99987.56
2018-02-12T23:58:08.750Z,99983.98
